sensor_id;sensor_type;location;lat;lon;timestamp;P1;durP1;ratioP1;P2;durP2;ratioP2
32096;SDS011;18610;49.916;8.284;2024-01-15T00:00:42;74.43;;;22.08;;
32096;SDS011;18610;49.916;8.284;2024-01-15T00:03:09;71.25;;;22.83;;
32096;SDS011;18610;49.916;8.284;2024-01-15T00:05:36;58.42;;;20.08;;
32096;SDS011;18610;49.916;8.284;2024-01-15T00:08:03;64.38;;;21.70;;
32096;SDS011;18610;49.916;8.284;2024-01-15T00:10:30;63.28;;;22.42;;
32096;SDS011;18610;49.916;8.284;2024-01-15T00:12:56;68.78;;;22.40;;
32096;SDS011;18610;49.916;8.284;2024-01-15T00:15:23;67.75;;;23.38;;
32096;SDS011;18610;49.916;8.284;2024-01-15T00:17:51;67.47;;;22.27;;
32096;SDS011;18610;49.916;8.284;2024-01-15T00:20:18;78.63;;;25.45;;
32096;SDS011;18610;49.916;8.284;2024-01-15T00:22:44;64.82;;;21.75;;
32096;SDS011;18610;49.916;8.284;2024-01-15T00:25:11;68.68;;;22.10;;
32096;SDS011;18610;49.916;8.284;2024-01-15T00:27:38;71.40;;;22.20;;
32096;SDS011;18610;49.916;8.284;2024-01-15T00:30:05;62.78;;;21.40;;
32096;SDS011;18610;49.916;8.284;2024-01-15T00:32:32;69.35;;;21.60;;
32096;SDS011;18610;49.916;8.284;2024-01-15T00:35:00;61.25;;;21.27;;
32096;SDS011;18610;49.916;8.284;2024-01-15T00:37:28;69.10;;;21.40;;
32096;SDS011;18610;49.916;8.284;2024-01-15T00:39:55;67.40;;;23.67;;
32096;SDS011;18610;49.916;8.284;2024-01-15T00:42:21;69.13;;;22.15;;
32096;SDS011;18610;49.916;8.284;2024-01-15T00:44:48;73.70;;;21.70;;
32096;SDS011;18610;49.916;8.284;2024-01-15T00:47:14;71.07;;;21.83;;
32096;SDS011;18610;49.916;8.284;2024-01-15T00:49:41;60.15;;;21.00;;
32096;SDS011;18610;49.916;8.284;2024-01-15T00:52:09;67.20;;;21.05;;
32096;SDS011;18610;49.916;8.284;2024-01-15T00:54:36;61.30;;;19.17;;
32096;SDS011;18610;49.916;8.284;2024-01-15T00:57:03;73.07;;;21.48;;
32096;SDS011;18610;49.916;8.284;2024-01-15T00:59:30;69.05;;;21.83;;
32096;SDS011;18610;49.916;8.284;2024-01-15T01:01:56;55.15;;;20.52;;
32096;SDS011;18610;49.916;8.284;2024-01-15T01:04:23;64.45;;;20.48;;
32096;SDS011;18610;49.916;8.284;2024-01-15T01:06:50;63.33;;;20.23;;
32096;SDS011;18610;49.916;8.284;2024-01-15T01:09:18;67.68;;;20.15;;
32096;SDS011;18610;49.916;8.284;2024-01-15T01:11:44;61.63;;;20.38;;
32096;SDS011;18610;49.916;8.284;2024-01-15T01:14:11;59.92;;;19.65;;
32096;SDS011;18610;49.916;8.284;2024-01-15T01:16:38;57.03;;;19.08;;
32096;SDS011;18610;49.916;8.284;2024-01-15T01:19:04;66.45;;;20.27;;
32096;SDS011;18610;49.916;8.284;2024-01-15T01:21:32;56.95;;;20.17;;
32096;SDS011;18610;49.916;8.284;2024-01-15T01:23:59;72.55;;;22.17;;
32096;SDS011;18610;49.916;8.284;2024-01-15T01:26:27;57.85;;;19.55;;
32096;SDS011;18610;49.916;8.284;2024-01-15T01:28:53;53.45;;;17.92;;
32096;SDS011;18610;49.916;8.284;2024-01-15T01:31:20;58.72;;;21.40;;
32096;SDS011;18610;49.916;8.284;2024-01-15T01:33:47;62.28;;;20.77;;
32096;SDS011;18610;49.916;8.284;2024-01-15T01:36:13;53.65;;;18.52;;
32096;SDS011;18610;49.916;8.284;2024-01-15T01:38:40;55.53;;;20.77;;
32096;SDS011;18610;49.916;8.284;2024-01-15T01:41:07;57.00;;;20.05;;
32096;SDS011;18610;49.916;8.284;2024-01-15T01:43:35;59.05;;;19.00;;
32096;SDS011;18610;49.916;8.284;2024-01-15T01:46:02;66.88;;;19.45;;
32096;SDS011;18610;49.916;8.284;2024-01-15T01:48:29;69.10;;;21.15;;
32096;SDS011;18610;49.916;8.284;2024-01-15T01:50:57;59.78;;;19.45;;
32096;SDS011;18610;49.916;8.284;2024-01-15T01:53:26;63.03;;;20.05;;
32096;SDS011;18610;49.916;8.284;2024-01-15T01:55:54;56.05;;;19.00;;
32096;SDS011;18610;49.916;8.284;2024-01-15T01:58:23;52.88;;;18.55;;
32096;SDS011;18610;49.916;8.284;2024-01-15T02:00:51;59.65;;;18.80;;
32096;SDS011;18610;49.916;8.284;2024-01-15T02:03:19;51.88;;;20.80;;
32096;SDS011;18610;49.916;8.284;2024-01-15T02:05:47;55.00;;;19.08;;
32096;SDS011;18610;49.916;8.284;2024-01-15T02:08:14;52.15;;;16.98;;
32096;SDS011;18610;49.916;8.284;2024-01-15T02:10:41;57.85;;;19.35;;
32096;SDS011;18610;49.916;8.284;2024-01-15T02:13:08;62.72;;;19.45;;
32096;SDS011;18610;49.916;8.284;2024-01-15T02:15:34;47.28;;;17.65;;
32096;SDS011;18610;49.916;8.284;2024-01-15T02:18:03;49.08;;;16.45;;
32096;SDS011;18610;49.916;8.284;2024-01-15T02:20:32;53.30;;;17.90;;
32096;SDS011;18610;49.916;8.284;2024-01-15T02:23:07;55.53;;;18.77;;
32096;SDS011;18610;49.916;8.284;2024-01-15T02:25:36;51.13;;;16.63;;
32096;SDS011;18610;49.916;8.284;2024-01-15T02:28:04;54.58;;;18.23;;
32096;SDS011;18610;49.916;8.284;2024-01-15T02:30:32;54.92;;;16.92;;
32096;SDS011;18610;49.916;8.284;2024-01-15T02:33:00;49.50;;;16.40;;
32096;SDS011;18610;49.916;8.284;2024-01-15T02:35:26;50.28;;;16.65;;
32096;SDS011;18610;49.916;8.284;2024-01-15T02:37:53;48.75;;;16.65;;
32096;SDS011;18610;49.916;8.284;2024-01-15T02:40:21;46.47;;;16.40;;
32096;SDS011;18610;49.916;8.284;2024-01-15T02:42:48;53.70;;;17.83;;
32096;SDS011;18610;49.916;8.284;2024-01-15T02:45:14;50.30;;;16.85;;
32096;SDS011;18610;49.916;8.284;2024-01-15T02:47:41;42.70;;;16.90;;
32096;SDS011;18610;49.916;8.284;2024-01-15T02:50:08;45.83;;;16.20;;
32096;SDS011;18610;49.916;8.284;2024-01-15T02:52:35;46.75;;;15.85;;
32096;SDS011;18610;49.916;8.284;2024-01-15T02:55:01;49.42;;;15.18;;
32096;SDS011;18610;49.916;8.284;2024-01-15T02:57:30;47.17;;;16.55;;
32096;SDS011;18610;49.916;8.284;2024-01-15T02:59:56;59.05;;;16.83;;
32096;SDS011;18610;49.916;8.284;2024-01-15T03:02:23;44.10;;;17.00;;
32096;SDS011;18610;49.916;8.284;2024-01-15T03:04:50;49.58;;;16.40;;
32096;SDS011;18610;49.916;8.284;2024-01-15T03:07:16;58.40;;;17.52;;
32096;SDS011;18610;49.916;8.284;2024-01-15T03:09:43;48.45;;;16.55;;
32096;SDS011;18610;49.916;8.284;2024-01-15T03:12:10;49.53;;;16.80;;
32096;SDS011;18610;49.916;8.284;2024-01-15T03:14:38;50.78;;;16.83;;
32096;SDS011;18610;49.916;8.284;2024-01-15T03:17:05;44.78;;;16.00;;
32096;SDS011;18610;49.916;8.284;2024-01-15T03:19:34;47.13;;;17.70;;
32096;SDS011;18610;49.916;8.284;2024-01-15T03:22:00;48.35;;;16.63;;
32096;SDS011;18610;49.916;8.284;2024-01-15T03:24:28;48.90;;;17.48;;
32096;SDS011;18610;49.916;8.284;2024-01-15T03:26:55;48.63;;;17.35;;
32096;SDS011;18610;49.916;8.284;2024-01-15T03:29:22;48.92;;;17.63;;
32096;SDS011;18610;49.916;8.284;2024-01-15T03:31:50;44.22;;;15.85;;
32096;SDS011;18610;49.916;8.284;2024-01-15T03:34:17;50.17;;;16.48;;
32096;SDS011;18610;49.916;8.284;2024-01-15T03:36:43;48.17;;;16.75;;
32096;SDS011;18610;49.916;8.284;2024-01-15T03:39:10;52.83;;;17.13;;
32096;SDS011;18610;49.916;8.284;2024-01-15T03:41:37;52.75;;;17.25;;
32096;SDS011;18610;49.916;8.284;2024-01-15T03:44:04;57.75;;;16.95;;
32096;SDS011;18610;49.916;8.284;2024-01-15T03:46:32;50.58;;;17.55;;
32096;SDS011;18610;49.916;8.284;2024-01-15T03:49:00;51.40;;;18.60;;
32096;SDS011;18610;49.916;8.284;2024-01-15T03:51:27;56.08;;;17.50;;
32096;SDS011;18610;49.916;8.284;2024-01-15T03:53:53;45.83;;;17.10;;
32096;SDS011;18610;49.916;8.284;2024-01-15T03:56:20;57.42;;;18.65;;
32096;SDS011;18610;49.916;8.284;2024-01-15T03:58:47;51.20;;;17.73;;
32096;SDS011;18610;49.916;8.284;2024-01-15T04:01:13;53.08;;;17.58;;
32096;SDS011;18610;49.916;8.284;2024-01-15T04:03:40;48.00;;;16.10;;
32096;SDS011;18610;49.916;8.284;2024-01-15T04:06:08;43.42;;;18.10;;
32096;SDS011;18610;49.916;8.284;2024-01-15T04:08:35;53.65;;;18.90;;
32096;SDS011;18610;49.916;8.284;2024-01-15T04:11:01;47.13;;;18.08;;
32096;SDS011;18610;49.916;8.284;2024-01-15T04:13:30;52.55;;;17.63;;
32096;SDS011;18610;49.916;8.284;2024-01-15T04:15:58;44.45;;;17.60;;
32096;SDS011;18610;49.916;8.284;2024-01-15T04:18:26;41.47;;;15.77;;
32096;SDS011;18610;49.916;8.284;2024-01-15T04:20:53;62.75;;;18.98;;
32096;SDS011;18610;49.916;8.284;2024-01-15T04:23:21;53.50;;;17.17;;
32096;SDS011;18610;49.916;8.284;2024-01-15T04:25:47;52.13;;;16.75;;
32096;SDS011;18610;49.916;8.284;2024-01-15T04:28:14;51.05;;;17.88;;
32096;SDS011;18610;49.916;8.284;2024-01-15T04:30:44;52.97;;;16.65;;
32096;SDS011;18610;49.916;8.284;2024-01-15T04:33:10;45.50;;;17.23;;
32096;SDS011;18610;49.916;8.284;2024-01-15T04:35:37;46.50;;;16.42;;
32096;SDS011;18610;49.916;8.284;2024-01-15T04:38:04;48.50;;;18.20;;
32096;SDS011;18610;49.916;8.284;2024-01-15T04:40:32;46.65;;;16.48;;
32096;SDS011;18610;49.916;8.284;2024-01-15T04:42:58;48.00;;;16.88;;
32096;SDS011;18610;49.916;8.284;2024-01-15T04:45:25;46.65;;;17.75;;
32096;SDS011;18610;49.916;8.284;2024-01-15T04:47:53;45.20;;;16.75;;
32096;SDS011;18610;49.916;8.284;2024-01-15T04:50:20;57.47;;;17.33;;
32096;SDS011;18610;49.916;8.284;2024-01-15T04:52:47;47.38;;;16.38;;
32096;SDS011;18610;49.916;8.284;2024-01-15T04:55:14;52.50;;;17.27;;
32096;SDS011;18610;49.916;8.284;2024-01-15T04:57:42;44.60;;;17.13;;
32096;SDS011;18610;49.916;8.284;2024-01-15T05:00:09;48.33;;;17.08;;
32096;SDS011;18610;49.916;8.284;2024-01-15T05:02:37;47.78;;;16.73;;
32096;SDS011;18610;49.916;8.284;2024-01-15T05:05:04;51.80;;;18.02;;
32096;SDS011;18610;49.916;8.284;2024-01-15T05:07:30;48.40;;;17.23;;
32096;SDS011;18610;49.916;8.284;2024-01-15T05:09:57;51.85;;;17.17;;
32096;SDS011;18610;49.916;8.284;2024-01-15T05:12:24;53.08;;;18.15;;
32096;SDS011;18610;49.916;8.284;2024-01-15T05:14:51;49.92;;;19.02;;
32096;SDS011;18610;49.916;8.284;2024-01-15T05:17:18;50.17;;;16.00;;
32096;SDS011;18610;49.916;8.284;2024-01-15T05:19:45;45.38;;;18.00;;
32096;SDS011;18610;49.916;8.284;2024-01-15T05:22:11;57.13;;;18.90;;
32096;SDS011;18610;49.916;8.284;2024-01-15T05:24:38;48.70;;;18.20;;
32096;SDS011;18610;49.916;8.284;2024-01-15T05:27:05;49.40;;;17.75;;
32096;SDS011;18610;49.916;8.284;2024-01-15T05:29:31;52.47;;;17.83;;
32096;SDS011;18610;49.916;8.284;2024-01-15T05:31:59;51.38;;;18.00;;
32096;SDS011;18610;49.916;8.284;2024-01-15T05:34:26;47.05;;;17.92;;
32096;SDS011;18610;49.916;8.284;2024-01-15T05:36:53;43.35;;;16.88;;
32096;SDS011;18610;49.916;8.284;2024-01-15T05:39:19;44.15;;;16.88;;
32096;SDS011;18610;49.916;8.284;2024-01-15T05:41:46;48.20;;;17.55;;
32096;SDS011;18610;49.916;8.284;2024-01-15T05:44:12;47.70;;;15.98;;
32096;SDS011;18610;49.916;8.284;2024-01-15T05:46:39;50.53;;;16.85;;
32096;SDS011;18610;49.916;8.284;2024-01-15T05:49:07;49.47;;;17.80;;
32096;SDS011;18610;49.916;8.284;2024-01-15T05:51:34;45.30;;;15.50;;
32096;SDS011;18610;49.916;8.284;2024-01-15T05:54:00;46.00;;;16.92;;
32096;SDS011;18610;49.916;8.284;2024-01-15T05:56:27;48.67;;;16.80;;
32096;SDS011;18610;49.916;8.284;2024-01-15T05:58:54;38.03;;;15.02;;
32096;SDS011;18610;49.916;8.284;2024-01-15T06:01:20;50.00;;;15.90;;
32096;SDS011;18610;49.916;8.284;2024-01-15T06:03:47;40.60;;;15.65;;
32096;SDS011;18610;49.916;8.284;2024-01-15T06:06:15;52.30;;;17.17;;
32096;SDS011;18610;49.916;8.284;2024-01-15T06:08:42;40.08;;;15.52;;
32096;SDS011;18610;49.916;8.284;2024-01-15T06:11:08;49.05;;;16.33;;
32096;SDS011;18610;49.916;8.284;2024-01-15T06:13:35;41.78;;;16.55;;
32096;SDS011;18610;49.916;8.284;2024-01-15T06:16:02;44.65;;;16.67;;
32096;SDS011;18610;49.916;8.284;2024-01-15T06:18:29;39.20;;;16.73;;
32096;SDS011;18610;49.916;8.284;2024-01-15T06:20:55;45.17;;;17.25;;
32096;SDS011;18610;49.916;8.284;2024-01-15T06:23:23;44.28;;;15.65;;
32096;SDS011;18610;49.916;8.284;2024-01-15T06:25:50;40.75;;;17.40;;
32096;SDS011;18610;49.916;8.284;2024-01-15T06:28:16;41.05;;;15.38;;
32096;SDS011;18610;49.916;8.284;2024-01-15T06:30:43;46.05;;;17.90;;
32096;SDS011;18610;49.916;8.284;2024-01-15T06:33:10;46.90;;;16.52;;
32096;SDS011;18610;49.916;8.284;2024-01-15T06:35:36;45.60;;;16.67;;
32096;SDS011;18610;49.916;8.284;2024-01-15T06:38:03;51.90;;;17.67;;
32096;SDS011;18610;49.916;8.284;2024-01-15T06:40:31;49.22;;;16.23;;
32096;SDS011;18610;49.916;8.284;2024-01-15T06:42:58;47.95;;;17.98;;
32096;SDS011;18610;49.916;8.284;2024-01-15T06:45:24;48.65;;;17.40;;
32096;SDS011;18610;49.916;8.284;2024-01-15T06:47:51;55.75;;;20.20;;
32096;SDS011;18610;49.916;8.284;2024-01-15T06:50:18;50.45;;;18.02;;
32096;SDS011;18610;49.916;8.284;2024-01-15T06:52:44;50.95;;;18.35;;
32096;SDS011;18610;49.916;8.284;2024-01-15T06:55:11;49.28;;;17.80;;
32096;SDS011;18610;49.916;8.284;2024-01-15T06:57:39;60.08;;;19.38;;
32096;SDS011;18610;49.916;8.284;2024-01-15T07:00:06;49.30;;;18.05;;
32096;SDS011;18610;49.916;8.284;2024-01-15T07:02:34;53.38;;;19.13;;
32096;SDS011;18610;49.916;8.284;2024-01-15T07:05:00;53.92;;;21.73;;
32096;SDS011;18610;49.916;8.284;2024-01-15T07:07:31;49.85;;;18.90;;
32096;SDS011;18610;49.916;8.284;2024-01-15T07:09:58;51.53;;;18.73;;
32096;SDS011;18610;49.916;8.284;2024-01-15T07:12:24;51.85;;;18.67;;
32096;SDS011;18610;49.916;8.284;2024-01-15T07:14:52;59.92;;;20.83;;
32096;SDS011;18610;49.916;8.284;2024-01-15T07:17:19;55.40;;;19.08;;
32096;SDS011;18610;49.916;8.284;2024-01-15T07:19:46;55.35;;;19.98;;
32096;SDS011;18610;49.916;8.284;2024-01-15T07:22:14;57.33;;;21.35;;
32096;SDS011;18610;49.916;8.284;2024-01-15T07:24:42;53.50;;;20.00;;
32096;SDS011;18610;49.916;8.284;2024-01-15T07:27:09;54.47;;;19.38;;
32096;SDS011;18610;49.916;8.284;2024-01-15T07:29:36;52.47;;;21.08;;
32096;SDS011;18610;49.916;8.284;2024-01-15T07:32:05;49.50;;;19.27;;
32096;SDS011;18610;49.916;8.284;2024-01-15T07:34:32;49.60;;;19.85;;
32096;SDS011;18610;49.916;8.284;2024-01-15T07:36:59;54.38;;;18.60;;
32096;SDS011;18610;49.916;8.284;2024-01-15T07:39:26;50.05;;;17.95;;
32096;SDS011;18610;49.916;8.284;2024-01-15T07:41:53;54.47;;;18.50;;
32096;SDS011;18610;49.916;8.284;2024-01-15T07:44:20;55.42;;;19.65;;
32096;SDS011;18610;49.916;8.284;2024-01-15T07:46:47;47.28;;;18.92;;
32096;SDS011;18610;49.916;8.284;2024-01-15T07:49:15;54.08;;;18.15;;
32096;SDS011;18610;49.916;8.284;2024-01-15T07:51:42;52.33;;;18.92;;
32096;SDS011;18610;49.916;8.284;2024-01-15T07:54:09;52.75;;;20.55;;
32096;SDS011;18610;49.916;8.284;2024-01-15T07:59:21;43.95;;;18.55;;
32096;SDS011;18610;49.916;8.284;2024-01-15T08:01:48;49.90;;;18.98;;
32096;SDS011;18610;49.916;8.284;2024-01-15T08:04:16;52.10;;;19.30;;
32096;SDS011;18610;49.916;8.284;2024-01-15T08:06:42;47.63;;;17.50;;
32096;SDS011;18610;49.916;8.284;2024-01-15T08:09:10;55.67;;;21.15;;
32096;SDS011;18610;49.916;8.284;2024-01-15T08:11:38;46.97;;;18.63;;
32096;SDS011;18610;49.916;8.284;2024-01-15T08:14:05;48.03;;;17.65;;
32096;SDS011;18610;49.916;8.284;2024-01-15T08:16:32;55.55;;;20.27;;
32096;SDS011;18610;49.916;8.284;2024-01-15T08:18:59;63.53;;;20.83;;
32096;SDS011;18610;49.916;8.284;2024-01-15T08:21:27;60.85;;;25.58;;
32096;SDS011;18610;49.916;8.284;2024-01-15T08:23:55;71.45;;;29.83;;
32096;SDS011;18610;49.916;8.284;2024-01-15T08:26:21;63.42;;;24.27;;
32096;SDS011;18610;49.916;8.284;2024-01-15T08:28:48;69.03;;;29.85;;
32096;SDS011;18610;49.916;8.284;2024-01-15T08:31:15;51.85;;;21.25;;
32096;SDS011;18610;49.916;8.284;2024-01-15T08:33:42;49.90;;;19.98;;
32096;SDS011;18610;49.916;8.284;2024-01-15T08:36:09;64.85;;;27.17;;
32096;SDS011;18610;49.916;8.284;2024-01-15T08:38:37;80.85;;;31.45;;
32096;SDS011;18610;49.916;8.284;2024-01-15T08:41:04;111.93;;;46.33;;
32096;SDS011;18610;49.916;8.284;2024-01-15T08:43:30;124.07;;;48.47;;
32096;SDS011;18610;49.916;8.284;2024-01-15T08:45:57;66.22;;;28.60;;
32096;SDS011;18610;49.916;8.284;2024-01-15T08:48:24;65.50;;;27.35;;
32096;SDS011;18610;49.916;8.284;2024-01-15T08:50:52;111.88;;;42.53;;
32096;SDS011;18610;49.916;8.284;2024-01-15T08:53:19;126.30;;;43.72;;
32096;SDS011;18610;49.916;8.284;2024-01-15T08:55:47;164.52;;;58.08;;
32096;SDS011;18610;49.916;8.284;2024-01-15T08:58:14;89.65;;;33.72;;
32096;SDS011;18610;49.916;8.284;2024-01-15T09:00:41;55.83;;;21.70;;
32096;SDS011;18610;49.916;8.284;2024-01-15T09:03:08;49.67;;;21.63;;
32096;SDS011;18610;49.916;8.284;2024-01-15T09:05:35;51.10;;;21.67;;
32096;SDS011;18610;49.916;8.284;2024-01-15T09:08:01;55.45;;;22.48;;
32096;SDS011;18610;49.916;8.284;2024-01-15T09:10:28;58.03;;;22.92;;
32096;SDS011;18610;49.916;8.284;2024-01-15T09:12:56;73.95;;;29.00;;
32096;SDS011;18610;49.916;8.284;2024-01-15T09:15:23;56.22;;;21.55;;
32096;SDS011;18610;49.916;8.284;2024-01-15T09:17:50;46.13;;;19.63;;
32096;SDS011;18610;49.916;8.284;2024-01-15T09:20:16;45.92;;;20.23;;
32096;SDS011;18610;49.916;8.284;2024-01-15T09:22:43;44.45;;;19.05;;
32096;SDS011;18610;49.916;8.284;2024-01-15T09:25:10;43.60;;;17.63;;
32096;SDS011;18610;49.916;8.284;2024-01-15T09:27:37;41.58;;;17.63;;
32096;SDS011;18610;49.916;8.284;2024-01-15T09:30:05;41.47;;;18.77;;
32096;SDS011;18610;49.916;8.284;2024-01-15T09:32:33;45.60;;;18.23;;
32096;SDS011;18610;49.916;8.284;2024-01-15T09:34:59;46.88;;;19.73;;
32096;SDS011;18610;49.916;8.284;2024-01-15T09:37:27;40.65;;;17.02;;
32096;SDS011;18610;49.916;8.284;2024-01-15T09:39:53;45.63;;;18.92;;
32096;SDS011;18610;49.916;8.284;2024-01-15T09:42:20;46.92;;;20.75;;
32096;SDS011;18610;49.916;8.284;2024-01-15T09:44:48;51.78;;;21.75;;
32096;SDS011;18610;49.916;8.284;2024-01-15T09:47:16;47.13;;;19.65;;
32096;SDS011;18610;49.916;8.284;2024-01-15T09:49:45;40.13;;;17.67;;
32096;SDS011;18610;49.916;8.284;2024-01-15T09:52:11;39.22;;;17.85;;
32096;SDS011;18610;49.916;8.284;2024-01-15T09:54:40;40.08;;;16.48;;
32096;SDS011;18610;49.916;8.284;2024-01-15T09:57:09;44.35;;;18.08;;
32096;SDS011;18610;49.916;8.284;2024-01-15T09:59:36;44.20;;;19.00;;
32096;SDS011;18610;49.916;8.284;2024-01-15T10:02:03;41.42;;;16.88;;
32096;SDS011;18610;49.916;8.284;2024-01-15T10:04:33;37.33;;;17.27;;
32096;SDS011;18610;49.916;8.284;2024-01-15T10:07:00;37.60;;;17.38;;
32096;SDS011;18610;49.916;8.284;2024-01-15T10:09:27;42.75;;;15.95;;
32096;SDS011;18610;49.916;8.284;2024-01-15T10:11:54;42.15;;;17.92;;
32096;SDS011;18610;49.916;8.284;2024-01-15T10:14:20;48.53;;;19.10;;
32096;SDS011;18610;49.916;8.284;2024-01-15T10:16:47;43.28;;;19.50;;
32096;SDS011;18610;49.916;8.284;2024-01-15T10:19:14;43.40;;;18.05;;
32096;SDS011;18610;49.916;8.284;2024-01-15T10:21:42;42.83;;;18.67;;
32096;SDS011;18610;49.916;8.284;2024-01-15T10:24:08;40.38;;;18.55;;
32096;SDS011;18610;49.916;8.284;2024-01-15T10:26:35;55.13;;;22.77;;
32096;SDS011;18610;49.916;8.284;2024-01-15T10:29:02;65.72;;;27.88;;
32096;SDS011;18610;49.916;8.284;2024-01-15T10:31:28;72.97;;;29.65;;
32096;SDS011;18610;49.916;8.284;2024-01-15T10:33:55;134.57;;;49.72;;
32096;SDS011;18610;49.916;8.284;2024-01-15T10:36:36;95.00;;;38.03;;
32096;SDS011;18610;49.916;8.284;2024-01-15T10:39:07;83.72;;;28.67;;
32096;SDS011;18610;49.916;8.284;2024-01-15T10:41:34;59.80;;;24.13;;
32096;SDS011;18610;49.916;8.284;2024-01-15T10:44:00;74.35;;;28.40;;
32096;SDS011;18610;49.916;8.284;2024-01-15T10:46:27;46.30;;;19.30;;
32096;SDS011;18610;49.916;8.284;2024-01-15T10:48:55;62.03;;;23.02;;
32096;SDS011;18610;49.916;8.284;2024-01-15T10:51:21;57.58;;;24.05;;
32096;SDS011;18610;49.916;8.284;2024-01-15T10:53:51;83.28;;;32.25;;
32096;SDS011;18610;49.916;8.284;2024-01-15T10:56:21;80.97;;;32.55;;
32096;SDS011;18610;49.916;8.284;2024-01-15T10:58:48;47.22;;;19.92;;
32096;SDS011;18610;49.916;8.284;2024-01-15T11:01:15;53.35;;;21.60;;
32096;SDS011;18610;49.916;8.284;2024-01-15T11:03:44;40.95;;;18.02;;
32096;SDS011;18610;49.916;8.284;2024-01-15T11:06:18;45.55;;;20.42;;
32096;SDS011;18610;49.916;8.284;2024-01-15T11:08:44;45.30;;;20.70;;
32096;SDS011;18610;49.916;8.284;2024-01-15T11:11:12;44.78;;;20.42;;
32096;SDS011;18610;49.916;8.284;2024-01-15T11:13:40;52.35;;;21.92;;
32096;SDS011;18610;49.916;8.284;2024-01-15T11:16:09;38.03;;;17.20;;
32096;SDS011;18610;49.916;8.284;2024-01-15T11:18:37;36.50;;;16.70;;
32096;SDS011;18610;49.916;8.284;2024-01-15T11:21:25;33.20;;;15.07;;
32096;SDS011;18610;49.916;8.284;2024-01-15T11:23:55;37.10;;;17.25;;
32096;SDS011;18610;49.916;8.284;2024-01-15T11:26:29;28.05;;;15.88;;
32096;SDS011;18610;49.916;8.284;2024-01-15T11:28:59;38.05;;;19.65;;
32096;SDS011;18610;49.916;8.284;2024-01-15T11:31:28;33.97;;;17.40;;
32096;SDS011;18610;49.916;8.284;2024-01-15T11:33:55;29.30;;;13.65;;
32096;SDS011;18610;49.916;8.284;2024-01-15T11:36:21;27.60;;;12.80;;
32096;SDS011;18610;49.916;8.284;2024-01-15T11:42:11;22.80;;;11.45;;
32096;SDS011;18610;49.916;8.284;2024-01-15T11:44:40;27.55;;;13.18;;
32096;SDS011;18610;49.916;8.284;2024-01-15T11:47:08;32.50;;;13.93;;
32096;SDS011;18610;49.916;8.284;2024-01-15T11:49:45;34.78;;;15.82;;
32096;SDS011;18610;49.916;8.284;2024-01-15T11:52:24;31.45;;;15.90;;
32096;SDS011;18610;49.916;8.284;2024-01-15T11:54:53;31.50;;;15.38;;
32096;SDS011;18610;49.916;8.284;2024-01-15T11:57:29;37.15;;;15.35;;
32096;SDS011;18610;49.916;8.284;2024-01-15T12:00:04;25.92;;;11.75;;
32096;SDS011;18610;49.916;8.284;2024-01-15T12:02:31;25.35;;;12.13;;
32096;SDS011;18610;49.916;8.284;2024-01-15T12:04:58;31.70;;;14.57;;
32096;SDS011;18610;49.916;8.284;2024-01-15T12:07:25;24.75;;;12.23;;
32096;SDS011;18610;49.916;8.284;2024-01-15T12:09:51;23.20;;;12.27;;
32096;SDS011;18610;49.916;8.284;2024-01-15T12:12:24;23.20;;;11.70;;
32096;SDS011;18610;49.916;8.284;2024-01-15T12:14:55;23.45;;;11.40;;
32096;SDS011;18610;49.916;8.284;2024-01-15T12:17:23;29.65;;;13.77;;
32096;SDS011;18610;49.916;8.284;2024-01-15T12:19:50;25.45;;;11.05;;
32096;SDS011;18610;49.916;8.284;2024-01-15T12:22:17;27.70;;;12.10;;
32096;SDS011;18610;49.916;8.284;2024-01-15T12:24:44;30.13;;;14.32;;
32096;SDS011;18610;49.916;8.284;2024-01-15T12:27:11;25.23;;;12.52;;
32096;SDS011;18610;49.916;8.284;2024-01-15T12:29:38;23.23;;;11.60;;
32096;SDS011;18610;49.916;8.284;2024-01-15T12:32:04;26.52;;;11.90;;
32096;SDS011;18610;49.916;8.284;2024-01-15T12:34:34;24.40;;;10.65;;
32096;SDS011;18610;49.916;8.284;2024-01-15T12:37:01;24.13;;;11.70;;
32096;SDS011;18610;49.916;8.284;2024-01-15T12:39:27;23.13;;;11.38;;
32096;SDS011;18610;49.916;8.284;2024-01-15T12:41:54;22.00;;;10.82;;
32096;SDS011;18610;49.916;8.284;2024-01-15T12:44:21;21.45;;;10.20;;
32096;SDS011;18610;49.916;8.284;2024-01-15T12:46:48;19.65;;;10.15;;
32096;SDS011;18610;49.916;8.284;2024-01-15T12:49:15;21.33;;;10.57;;
32096;SDS011;18610;49.916;8.284;2024-01-15T12:51:43;24.10;;;11.95;;
32096;SDS011;18610;49.916;8.284;2024-01-15T12:54:18;22.88;;;11.98;;
32096;SDS011;18610;49.916;8.284;2024-01-15T12:56:45;28.08;;;12.10;;
32096;SDS011;18610;49.916;8.284;2024-01-15T12:59:11;24.40;;;11.07;;
32096;SDS011;18610;49.916;8.284;2024-01-15T13:01:38;28.42;;;11.77;;
32096;SDS011;18610;49.916;8.284;2024-01-15T13:04:06;24.17;;;11.43;;
32096;SDS011;18610;49.916;8.284;2024-01-15T13:06:34;26.75;;;10.90;;
32096;SDS011;18610;49.916;8.284;2024-01-15T13:09:03;23.77;;;11.48;;
32096;SDS011;18610;49.916;8.284;2024-01-15T13:11:30;28.55;;;13.90;;
32096;SDS011;18610;49.916;8.284;2024-01-15T13:13:57;37.58;;;15.50;;
32096;SDS011;18610;49.916;8.284;2024-01-15T13:16:24;39.60;;;16.38;;
32096;SDS011;18610;49.916;8.284;2024-01-15T13:18:53;34.72;;;14.10;;
32096;SDS011;18610;49.916;8.284;2024-01-15T13:21:20;27.70;;;10.02;;
32096;SDS011;18610;49.916;8.284;2024-01-15T13:23:50;26.40;;;11.80;;
32096;SDS011;18610;49.916;8.284;2024-01-15T13:26:18;36.25;;;16.10;;
32096;SDS011;18610;49.916;8.284;2024-01-15T13:28:45;56.92;;;23.30;;
32096;SDS011;18610;49.916;8.284;2024-01-15T13:31:14;31.30;;;14.63;;
32096;SDS011;18610;49.916;8.284;2024-01-15T13:33:41;29.83;;;12.85;;
32096;SDS011;18610;49.916;8.284;2024-01-15T13:36:08;21.30;;;10.23;;
32096;SDS011;18610;49.916;8.284;2024-01-15T13:38:35;25.80;;;11.25;;
32096;SDS011;18610;49.916;8.284;2024-01-15T13:41:03;31.10;;;13.77;;
32096;SDS011;18610;49.916;8.284;2024-01-15T13:43:32;50.55;;;19.67;;
32096;SDS011;18610;49.916;8.284;2024-01-15T13:45:58;42.22;;;15.05;;
32096;SDS011;18610;49.916;8.284;2024-01-15T13:48:25;24.10;;;11.10;;
32096;SDS011;18610;49.916;8.284;2024-01-15T13:50:52;41.20;;;16.52;;
32096;SDS011;18610;49.916;8.284;2024-01-15T13:53:19;39.72;;;16.38;;
32096;SDS011;18610;49.916;8.284;2024-01-15T13:55:45;32.35;;;12.25;;
32096;SDS011;18610;49.916;8.284;2024-01-15T13:58:12;22.08;;;9.40;;
32096;SDS011;18610;49.916;8.284;2024-01-15T14:00:40;39.28;;;14.25;;
32096;SDS011;18610;49.916;8.284;2024-01-15T14:03:07;18.08;;;8.02;;
32096;SDS011;18610;49.916;8.284;2024-01-15T14:05:34;29.55;;;11.88;;
32096;SDS011;18610;49.916;8.284;2024-01-15T14:08:00;35.83;;;14.02;;
32096;SDS011;18610;49.916;8.284;2024-01-15T14:10:28;18.42;;;8.40;;
32096;SDS011;18610;49.916;8.284;2024-01-15T14:12:55;25.17;;;10.88;;
32096;SDS011;18610;49.916;8.284;2024-01-15T14:15:21;23.67;;;9.70;;
32096;SDS011;18610;49.916;8.284;2024-01-15T14:17:49;38.47;;;13.00;;
32096;SDS011;18610;49.916;8.284;2024-01-15T14:20:17;65.22;;;23.80;;
32096;SDS011;18610;49.916;8.284;2024-01-15T14:22:44;45.45;;;16.63;;
32096;SDS011;18610;49.916;8.284;2024-01-15T14:25:10;24.33;;;10.18;;
32096;SDS011;18610;49.916;8.284;2024-01-15T14:27:37;53.63;;;18.77;;